Time;durP1;ratioP1;P1;durP2;ratioP2;P2;SDS_P1;SDS_P2;PMS_P1;PMS_P2;Temp;Humidity;BMP_temperature;BMP_pressure;BME280_temperature;BME280_humidity;BME280_pressure;Samples;Min_cycle;Max_cycle;Signal;HPM_P1;HPM_P2
2023/10/29 00:02:16;;;;;;;4.80;1.50;;;;;;;10.19;100.00;99336.69;6129182;28;20356;-72
2023/10/29 00:05:12;;;;;;;5.03;1.48;;;;;;;10.19;100.00;99330.56;6124265;28;20028;-71
2023/10/29 00:08:09;;;;;;;5.32;1.45;;;;;;;10.19;100.00;99315.50;6123905;28;20024;-71
2023/10/29 00:11:04;;;;;;;3.75;1.45;;;;;;;10.19;100.00;99309.38;6131755;28;20033;-73
2023/10/29 00:13:59;;;;;;;3.67;1.70;;;;;;;10.24;100.00;99317.59;6125639;28;20025;-72
2023/10/29 00:16:55;;;;;;;4.53;1.30;;;;;;;10.09;100.00;99294.50;6123381;28;20155;-73
2023/10/29 00:19:50;;;;;;;7.07;1.90;;;;;;;10.22;100.00;99307.19;6123189;28;20024;-71
2023/10/29 00:22:45;;;;;;;5.88;2.00;;;;;;;10.13;100.00;99287.06;6122990;28;20074;-73
2023/10/29 00:25:41;;;;;;;5.23;1.80;;;;;;;10.17;100.00;99296.28;6133697;28;20035;-74
2023/10/29 00:28:36;;;;;;;5.20;1.90;;;;;;;10.10;100.00;99285.56;6124487;28;20127;-75
2023/10/29 00:31:32;;;;;;;3.67;1.80;;;;;;;10.16;100.00;99281.41;6123263;28;20275;-72
2023/10/29 00:34:27;;;;;;;16.08;2.53;;;;;;;10.16;100.00;99273.47;6123161;28;20064;-73
2023/10/29 00:37:22;;;;;;;6.00;1.87;;;;;;;10.19;100.00;99273.13;6123387;28;20028;-72
2023/10/29 00:40:18;;;;;;;8.90;2.30;;;;;;;10.14;100.00;99275.44;6129186;28;20078;-71
2023/10/29 00:43:14;;;;;;;8.43;2.10;;;;;;;10.14;100.00;99283.41;6122941;28;20526;-72
2023/10/29 00:46:11;;;;;;;3.60;1.80;;;;;;;10.15;100.00;99287.72;6131304;28;20046;-71
2023/10/29 00:49:07;;;;;;;5.68;2.15;;;;;;;10.13;100.00;99273.81;6126020;28;20028;-71
2023/10/29 00:52:03;;;;;;;9.20;2.00;;;;;;;10.14;100.00;99278.94;6123744;28;20024;-74
2023/10/29 00:54:58;;;;;;;8.52;2.42;;;;;;;10.15;100.00;99277.94;6105037;28;20028;-71
2023/10/29 00:57:54;;;;;;;6.57;2.17;;;;;;;10.16;100.00;99265.53;6131075;28;20024;-71
2023/10/29 01:00:50;;;;;;;4.38;1.92;;;;;;;10.18;100.00;99262.69;6131164;28;20054;-72
2023/10/29 01:03:45;;;;;;;4.55;1.73;;;;;;;10.11;100.00;99249.28;6130235;28;20043;-72
2023/10/29 01:06:42;;;;;;;5.43;2.00;;;;;;;10.05;100.00;99231.50;6124545;28;20024;-71
2023/10/29 01:09:40;;;;;;;4.28;1.77;;;;;;;10.21;100.00;99257.88;6122271;28;20337;-71
2023/10/29 01:12:35;;;;;;;6.00;2.20;;;;;;;10.28;100.00;99261.44;6127799;28;20047;-71
2023/10/29 01:15:30;;;;;;;9.67;1.93;;;;;;;10.19;100.00;99243.97;6121872;28;20028;-71
2023/10/29 01:18:26;;;;;;;3.57;1.50;;;;;;;10.35;100.00;99262.38;6129212;28;20028;-72
2023/10/29 01:21:21;;;;;;;4.13;1.60;;;;;;;10.28;100.00;99244.69;6122726;28;20283;-71
2023/10/29 01:24:16;;;;;;;3.75;1.58;;;;;;;10.30;100.00;99243.50;6126913;28;20119;-70
2023/10/29 01:27:12;;;;;;;3.83;1.43;;;;;;;10.43;100.00;99251.69;6121992;28;20036;-73
2023/10/29 01:30:07;;;;;;;4.28;1.70;;;;;;;10.45;100.00;99249.69;6121637;28;20047;-71
2023/10/29 01:33:03;;;;;;;2.70;1.38;;;;;;;10.50;100.00;99236.69;6128717;28;20047;-71
2023/10/29 01:35:58;;;;;;;3.80;1.63;;;;;;;10.50;100.00;99242.00;6125917;28;20116;-72
2023/10/29 01:38:53;;;;;;;2.33;1.40;;;;;;;10.53;100.00;99238.16;6124944;28;20031;-73
2023/10/29 01:41:55;;;;;;;4.40;1.63;;;;;;;10.47;100.00;99215.84;6124159;28;20785;-74
2023/10/29 01:44:50;;;;;;;4.30;1.30;;;;;;;10.58;100.00;99226.00;6121671;28;20074;-74
2023/10/29 01:47:46;;;;;;;6.50;1.97;;;;;;;10.54;100.00;99211.50;6121763;28;20471;-74
2023/10/29 01:50:41;;;;;;;2.80;1.50;;;;;;;10.58;100.00;99207.44;6126716;28;20083;-73
2023/10/29 01:53:37;;;;;;;2.90;1.27;;;;;;;10.64;100.00;99204.06;6121034;28;20298;-70
2023/10/29 01:56:34;;;;;;;3.67;1.33;;;;;;;10.52;100.00;99175.53;6121771;28;20060;-71
2023/10/29 01:59:30;;;;;;;2.25;1.08;;;;;;;10.68;100.00;99197.38;6121524;28;20040;-72
2023/10/29 02:02:25;;;;;;;3.58;1.17;;;;;;;10.59;100.00;99179.13;6121060;28;20021;-72
2023/10/29 02:05:20;;;;;;;3.43;1.30;;;;;;;10.71;100.00;99194.38;6122089;28;20543;-73
2023/10/29 02:08:17;;;;;;;4.47;1.40;;;;;;;10.70;100.00;99187.44;6128371;28;20143;-71
2023/10/29 02:11:12;;;;;;;7.40;2.08;;;;;;;10.73;100.00;99179.09;6121395;28;20023;-76
2023/10/29 02:14:08;;;;;;;3.30;1.00;;;;;;;10.77;100.00;99172.44;6123488;28;20028;-71
2023/10/29 02:17:03;;;;;;;2.70;1.03;;;;;;;10.72;100.00;99147.47;6121345;28;20033;-74
2023/10/29 02:19:58;;;;;;;3.65;1.23;;;;;;;10.74;100.00;99148.09;6120378;28;20269;-73
2023/10/29 02:22:54;;;;;;;2.65;1.35;;;;;;;10.76;100.00;99149.56;6120508;28;20059;-71
2023/10/29 02:25:49;;;;;;;4.10;1.20;;;;;;;10.88;100.00;99152.56;6121036;28;20082;-70
2023/10/29 02:28:44;;;;;;;5.20;1.20;;;;;;;10.91;100.00;99152.19;6126687;28;20029;-71
2023/10/29 02:31:40;;;;;;;2.87;1.20;;;;;;;10.93;100.00;99144.03;6124938;28;20119;-74
2023/10/29 02:34:35;;;;;;;2.27;0.80;;;;;;;10.95;100.00;99131.44;6128235;28;20390;-72
2023/10/29 02:37:30;;;;;;;4.10;1.23;;;;;;;10.99;100.00;99136.16;6127605;28;20271;-72
2023/10/29 02:40:25;;;;;;;3.43;1.23;;;;;;;11.04;100.00;99125.00;6121548;28;20078;-71
2023/10/29 02:43:21;;;;;;;4.47;1.17;;;;;;;11.14;100.00;99114.91;6131486;28;20032;-71
2023/10/29 02:46:16;;;;;;;4.13;1.20;;;;;;;11.14;100.00;99115.72;6124748;28;20430;-71
2023/10/29 02:49:11;;;;;;;3.33;0.80;;;;;;;11.27;100.00;99118.50;6127373;28;20055;-71
2023/10/29 02:52:07;;;;;;;1.50;1.00;;;;;;;11.29;100.00;99123.63;6120745;28;20090;-71
2023/10/29 02:55:03;;;;;;;2.80;0.90;;;;;;;11.19;100.00;99105.38;6122954;28;20035;-73
2023/10/29 02:57:59;;;;;;;1.20;0.68;;;;;;;11.15;100.00;99101.44;6121476;28;20380;-74
2023/10/29 03:01:03;;;;;;;2.30;0.80;;;;;;;11.15;100.00;99116.53;6127784;28;20039;-73
2023/10/29 03:03:58;;;;;;;1.63;1.00;;;;;;;11.31;100.00;99122.41;6129004;28;20269;-72
2023/10/29 03:06:53;;;;;;;4.47;1.30;;;;;;;11.28;100.00;99116.66;6124307;28;20475;-71
2023/10/29 03:09:49;;;;;;;4.03;1.03;;;;;;;11.33;100.00;99109.78;6117663;28;20035;-71
2023/10/29 03:12:44;;;;;;;2.93;1.10;;;;;;;11.23;100.00;99087.22;6122119;28;20906;-72
2023/10/29 03:15:43;;;;;;;2.10;1.03;;;;;;;11.28;100.00;99100.75;6127694;28;20472;-74
2023/10/29 03:18:39;;;;;;;2.97;0.85;;;;;;;11.31;100.00;99095.88;6141844;28;20134;-72
2023/10/29 03:21:35;;;;;;;3.95;1.10;;;;;;;11.36;100.00;99097.94;6124223;28;20024;-74
2023/10/29 03:24:30;;;;;;;1.90;0.90;;;;;;;11.28;100.00;99082.16;6119730;28;20040;-72
2023/10/29 03:27:26;;;;;;;2.53;0.93;;;;;;;11.36;100.00;99074.91;6121543;28;20715;-73
2023/10/29 03:30:21;;;;;;;4.73;1.07;;;;;;;11.33;100.00;99061.22;6124089;28;20376;-73
2023/10/29 03:33:16;;;;;;;3.47;1.20;;;;;;;11.42;100.00;99038.81;6130055;28;20266;-71
2023/10/29 03:36:12;;;;;;;3.20;1.07;;;;;;;11.38;100.00;99026.94;6129264;28;20020;-74
2023/10/29 03:39:08;;;;;;;3.58;0.82;;;;;;;11.42;100.00;99028.19;6127098;28;20383;-74
2023/10/29 03:42:03;;;;;;;2.33;1.00;;;;;;;11.39;100.00;99033.09;6126991;28;20032;-74
2023/10/29 03:44:59;;;;;;;2.65;0.85;;;;;;;11.43;100.00;99053.72;6125139;28;20055;-72
2023/10/29 03:47:54;;;;;;;2.10;1.00;;;;;;;11.45;100.00;99046.38;6127931;28;20056;-74
2023/10/29 03:50:49;;;;;;;4.93;0.80;;;;;;;11.48;100.00;99046.00;6128844;28;20142;-72
2023/10/29 03:53:45;;;;;;;2.20;0.70;;;;;;;11.58;100.00;99037.69;6124637;28;20025;-73
2023/10/29 03:56:40;;;;;;;2.90;1.10;;;;;;;11.65;100.00;99036.75;6130417;28;20040;-73
2023/10/29 03:59:36;;;;;;;2.83;0.90;;;;;;;11.65;100.00;99034.09;6137621;28;20302;-73
2023/10/29 04:02:31;;;;;;;3.25;0.95;;;;;;;11.64;100.00;99044.88;6130030;28;20036;-74
2023/10/29 04:05:27;;;;;;;2.47;0.90;;;;;;;11.65;100.00;99046.53;6128314;28;20111;-74
2023/10/29 04:08:22;;;;;;;4.53;1.20;;;;;;;11.65;100.00;99036.75;6124031;28;20025;-72
2023/10/29 04:11:17;;;;;;;2.50;0.93;;;;;;;11.66;100.00;99035.72;6130345;28;20032;-76
2023/10/29 04:14:13;;;;;;;3.70;0.87;;;;;;;11.64;100.00;99029.78;6123716;28;20033;-73
2023/10/29 04:17:09;;;;;;;4.07;1.17;;;;;;;11.69;100.00;99034.53;6130435;28;20377;-74
2023/10/29 04:20:05;;;;;;;1.50;0.75;;;;;;;11.75;100.00;99023.97;6128098;28;20059;-73
2023/10/29 04:23:01;;;;;;;2.00;0.90;;;;;;;11.73;100.00;99011.91;6122703;28;20017;-73
2023/10/29 04:25:56;;;;;;;4.50;0.80;;;;;;;11.80;100.00;99021.53;6129056;28;20032;-73
2023/10/29 04:28:52;;;;;;;5.10;1.13;;;;;;;11.84;100.00;99016.66;6127709;28;20032;-74
2023/10/29 04:31:47;;;;;;;2.10;1.02;;;;;;;11.77;100.00;98984.75;6126221;28;20460;-72
2023/10/29 04:34:43;;;;;;;4.43;1.10;;;;;;;11.78;100.00;98978.44;6134221;28;20047;-72
2023/10/29 04:37:38;;;;;;;3.83;0.90;;;;;;;11.85;100.00;98997.88;6122440;28;20036;-72
2023/10/29 04:40:34;;;;;;;2.50;0.90;;;;;;;11.81;100.00;99006.44;6126724;28;20056;-72
2023/10/29 04:43:29;;;;;;;2.47;0.82;;;;;;;11.77;100.00;98995.38;6129406;28;20439;-73
2023/10/29 04:46:24;;;;;;;5.63;1.40;;;;;;;11.70;100.00;98978.59;6131074;28;20055;-74
2023/10/29 04:49:20;;;;;;;2.63;1.00;;;;;;;11.82;100.00;98982.31;6129334;28;20403;-74
2023/10/29 04:52:15;;;;;;;4.57;0.77;;;;;;;11.78;100.00;98964.31;6124440;28;20275;-74
2023/10/29 04:55:10;;;;;;;5.47;1.03;;;;;;;11.89;100.00;98972.56;6125863;28;20028;-73
2023/10/29 04:58:05;;;;;;;2.73;1.00;;;;;;;11.84;100.00;98952.94;6124253;28;20028;-74
2023/10/29 05:01:01;;;;;;;4.03;1.17;;;;;;;11.87;100.00;98958.66;6125578;28;20043;-75
2023/10/29 05:03:56;;;;;;;3.53;0.80;;;;;;;11.90;100.00;98944.97;6128401;28;20082;-76
2023/10/29 05:06:52;;;;;;;2.63;0.80;;;;;;;11.97;100.00;98938.88;6122581;28;20111;-73
2023/10/29 05:09:47;;;;;;;1.33;0.90;;;;;;;11.91;100.00;98916.56;6123921;28;20025;-74
2023/10/29 05:12:56;;;;;;;1.65;0.80;;;;;;;12.02;100.00;98917.84;6145841;28;20077;-73
2023/10/29 05:15:51;;;;;;;2.65;0.85;;;;;;;11.91;100.00;98913.91;6132880;28;20064;-73
2023/10/29 05:18:47;;;;;;;5.17;1.37;;;;;;;11.89;100.00;98919.44;6122803;28;20418;-76
2023/10/29 05:21:42;;;;;;;2.53;1.00;;;;;;;11.84;100.00;98884.69;6123154;28;20502;-73
2023/10/29 05:24:37;;;;;;;3.17;1.00;;;;;;;11.93;100.00;98927.81;6128897;28;20033;-74
2023/10/29 05:27:34;;;;;;;2.73;0.87;;;;;;;11.95;100.00;98917.84;6122095;28;20031;-73
2023/10/29 05:30:29;;;;;;;2.45;0.90;;;;;;;12.06;100.00;98929.72;6135906;28;20032;-73
2023/10/29 05:33:25;;;;;;;1.97;0.80;;;;;;;12.14;100.00;98930.38;6121564;28;20064;-73
2023/10/29 05:36:20;;;;;;;2.00;0.63;;;;;;;12.17;100.00;98906.06;6129970;28;20261;-73
2023/10/29 05:39:17;;;;;;;1.80;0.60;;;;;;;12.10;100.00;98909.69;6123307;28;20039;-75
2023/10/29 05:42:13;;;;;;;3.95;0.85;;;;;;;12.08;100.00;98915.22;6121072;28;20024;-73
2023/10/29 05:45:09;;;;;;;2.30;0.90;;;;;;;12.07;100.00;98926.03;6121940;28;20104;-73
2023/10/29 05:48:04;;;;;;;2.10;0.85;;;;;;;12.04;100.00;98931.75;6127308;28;20391;-76
2023/10/29 05:50:59;;;;;;;3.38;0.90;;;;;;;12.09;100.00;98930.16;6122859;28;20102;-73
2023/10/29 05:53:55;;;;;;;1.17;0.60;;;;;;;12.08;100.00;98933.00;6121129;28;20028;-75
2023/10/29 05:56:50;;;;;;;4.53;0.90;;;;;;;12.11;100.00;98975.09;6121063;28;20036;-72
2023/10/29 05:59:45;;;;;;;2.83;1.03;;;;;;;11.97;100.00;98952.16;6121387;28;20391;-76
2023/10/29 06:02:41;;;;;;;1.97;0.80;;;;;;;12.02;100.00;98955.03;6120669;28;20518;-76
2023/10/29 06:05:36;;;;;;;2.80;1.00;;;;;;;12.07;100.00;98952.59;6121932;28;20036;-73
2023/10/29 06:08:31;;;;;;;2.00;0.83;;;;;;;12.27;100.00;98961.47;6123567;28;20283;-76
2023/10/29 06:11:27;;;;;;;3.23;0.83;;;;;;;12.13;100.00;98914.59;6128015;28;20032;-73
2023/10/29 06:14:22;;;;;;;2.83;0.83;;;;;;;12.08;100.00;98925.03;6122196;28;20104;-74
2023/10/29 06:17:18;;;;;;;2.45;0.80;;;;;;;12.11;100.00;98927.28;6121200;28;20040;-74
2023/10/29 06:20:17;;;;;;;4.45;1.02;;;;;;;12.06;100.00;98924.41;6126208;28;20025;-73
2023/10/29 06:23:12;;;;;;;3.17;0.82;;;;;;;12.06;100.00;98953.63;6124153;28;20111;-74
2023/10/29 06:26:08;;;;;;;1.80;0.70;;;;;;;12.06;100.00;98966.91;6126393;28;20090;-77
2023/10/29 06:29:05;;;;;;;1.38;0.80;;;;;;;12.01;100.00;98982.63;6128625;28;20028;-75
2023/10/29 06:32:01;;;;;;;1.92;0.52;;;;;;;12.03;100.00;98983.25;6120506;28;20028;-73
2023/10/29 06:34:56;;;;;;;1.47;0.70;;;;;;;12.12;100.00;98996.16;6121272;28;20549;-73
2023/10/29 06:37:52;;;;;;;2.23;0.93;;;;;;;12.20;100.00;99001.28;6129211;28;20020;-72
2023/10/29 06:40:47;;;;;;;1.88;1.00;;;;;;;12.23;100.00;98968.22;6121027;28;20074;-74
2023/10/29 06:43:43;;;;;;;2.67;0.63;;;;;;;12.36;100.00;98979.72;6120958;28;20036;-72
2023/10/29 06:46:38;;;;;;;4.72;0.88;;;;;;;12.41;100.00;98984.41;6120677;28;20104;-75
2023/10/29 06:49:33;;;;;;;1.97;0.60;;;;;;;12.42;100.00;98994.84;6120662;28;20380;-73
2023/10/29 06:52:29;;;;;;;1.70;0.80;;;;;;;12.43;100.00;98982.38;6123768;28;20016;-80
2023/10/29 06:55:24;;;;;;;2.07;0.83;;;;;;;12.41;100.00;98979.09;6122446;28;20032;-74
2023/10/29 06:58:19;;;;;;;3.20;0.63;;;;;;;12.49;100.00;98978.91;6128122;28;20271;-74
2023/10/29 07:01:15;;;;;;;1.83;0.83;;;;;;;12.45;100.00;98977.66;6124267;28;20463;-75
2023/10/29 07:04:10;;;;;;;1.88;0.70;;;;;;;12.48;100.00;98987.91;6123498;28;20025;-74
2023/10/29 07:07:05;;;;;;;2.67;1.33;;;;;;;12.44;100.00;98986.69;6120598;28;20115;-73
2023/10/29 07:10:03;;;;;;;1.50;0.60;;;;;;;12.50;100.00;98959.28;6125550;28;20024;-76
2023/10/29 07:12:59;;;;;;;2.30;1.00;;;;;;;12.53;100.00;98980.13;6124861;28;20087;-74
2023/10/29 07:15:54;;;;;;;1.77;0.70;;;;;;;12.62;100.00;98984.25;6134624;28;20070;-75
2023/10/29 07:18:50;;;;;;;1.27;0.70;;;;;;;12.75;100.00;98992.25;6128898;28;20083;-75
2023/10/29 07:21:45;;;;;;;4.45;0.80;;;;;;;12.69;100.00;98965.66;6124893;28;20038;-75
2023/10/29 07:24:40;;;;;;;1.20;0.60;;;;;;;12.87;100.00;98977.34;6127295;28;20108;-73
2023/10/29 07:27:36;;;;;;;1.57;0.70;;;;;;;12.92;100.00;98956.28;6129370;28;20123;-74
2023/10/29 07:30:31;;;;;;;3.97;0.93;;;;;;;12.98;100.00;98958.13;6123493;28;20103;-75
2023/10/29 07:33:27;;;;;;;2.63;0.80;;;;;;;13.01;100.00;98971.03;6125082;28;20028;-74
2023/10/29 07:36:23;;;;;;;2.03;0.70;;;;;;;13.08;100.00;98957.72;6129222;28;20112;-72
2023/10/29 07:39:18;;;;;;;3.58;0.90;;;;;;;13.16;100.00;98964.69;6123666;28;20294;-75
2023/10/29 07:42:14;;;;;;;1.37;0.70;;;;;;;13.19;100.00;98970.41;6123674;28;20047;-75
2023/10/29 07:45:10;;;;;;;1.17;0.60;;;;;;;13.22;100.00;98974.50;6132354;28;20029;-73
2023/10/29 07:48:05;;;;;;;3.05;0.80;;;;;;;13.06;100.00;98957.09;6128935;28;20349;-76
2023/10/29 07:51:00;;;;;;;1.30;0.60;;;;;;;13.06;100.00;98959.75;6130826;28;20127;-76
2023/10/29 07:53:56;;;;;;;1.60;0.70;;;;;;;13.15;100.00;98973.72;6129828;28;20313;-76
2023/10/29 07:56:51;;;;;;;1.63;0.80;;;;;;;13.13;100.00;98977.38;6129641;28;20075;-75
2023/10/29 07:59:47;;;;;;;2.53;0.90;;;;;;;13.09;100.00;98960.19;6123887;28;20020;-76
2023/10/29 08:02:43;;;;;;;2.30;0.80;;;;;;;13.25;100.00;98963.47;6132438;28;20032;-76
2023/10/29 08:05:39;;;;;;;1.35;0.60;;;;;;;13.28;100.00;98963.88;6129738;28;20028;-75
2023/10/29 08:08:34;;;;;;;4.88;0.80;;;;;;;13.25;100.00;98969.59;6129205;28;20079;-77
2023/10/29 08:11:30;;;;;;;1.58;0.90;;;;;;;13.33;100.00;98973.88;6127794;28;20114;-75
2023/10/29 08:14:25;;;;;;;4.38;0.70;;;;;;;13.26;100.00;98949.97;6123794;28;20020;-74
2023/10/29 08:17:21;;;;;;;3.13;0.90;;;;;;;13.37;100.00;98967.16;6132218;28;20032;-75
2023/10/29 08:20:16;;;;;;;1.27;0.63;;;;;;;13.34;100.00;98946.25;6106945;28;20028;-76
2023/10/29 08:23:11;;;;;;;3.70;0.90;;;;;;;13.36;100.00;98944.19;6125027;28;20029;-74
2023/10/29 08:26:07;;;;;;;2.17;0.80;;;;;;;13.32;100.00;98964.25;6110916;28;20537;-74
2023/10/29 08:29:03;;;;;;;1.70;0.50;;;;;;;13.32;100.00;98961.59;6127783;28;20075;-74
2023/10/29 08:31:58;;;;;;;3.15;0.90;;;;;;;13.37;100.00;98954.63;6126068;28;20460;-75
2023/10/29 08:34:53;;;;;;;1.50;0.70;;;;;;;13.45;100.00;98958.94;6129579;28;20033;-76
2023/10/29 08:37:49;;;;;;;2.37;0.90;;;;;;;13.48;100.00;98956.66;6132250;28;20028;-75
2023/10/29 08:40:44;;;;;;;1.80;0.70;;;;;;;13.63;100.00;98967.91;6123315;28;20043;-75
2023/10/29 08:43:39;;;;;;;3.40;0.80;;;;;;;13.54;100.00;98958.50;6127147;28;20651;-77
2023/10/29 08:46:35;;;;;;;1.77;0.80;;;;;;;13.65;100.00;98965.84;6125333;28;20028;-74
2023/10/29 08:49:30;;;;;;;1.80;0.80;;;;;;;13.61;100.00;98961.16;6122038;28;20037;-78
2023/10/29 08:52:25;;;;;;;2.90;0.90;;;;;;;13.70;100.00;98973.22;6107117;28;20064;-73
2023/10/29 08:55:21;;;;;;;6.63;2.35;;;;;;;13.73;100.00;98978.13;6126397;28;20058;-75
2023/10/29 08:58:17;;;;;;;4.40;1.33;;;;;;;13.65;100.00;98965.03;6127975;28;20472;-73
2023/10/29 09:01:12;;;;;;;6.90;2.72;;;;;;;13.74;100.00;98979.78;6136839;28;20275;-76
2023/10/29 09:04:10;;;;;;;3.05;1.95;;;;;;;13.77;100.00;98989.19;6122311;28;20035;-75
2023/10/29 09:07:05;;;;;;;1.88;0.70;;;;;;;13.70;100.00;98973.22;6124464;28;20044;-73
2023/10/29 09:10:02;;;;;;;2.28;1.50;;;;;;;13.77;100.00;98998.00;6126668;28;20025;-76
2023/10/29 09:12:57;;;;;;;1.60;0.52;;;;;;;13.89;100.00;99009.66;6127609;28;20036;-73
2023/10/29 09:15:52;;;;;;;3.70;0.80;;;;;;;13.88;100.00;99002.69;6123409;28;20086;-74
2023/10/29 09:18:48;;;;;;;1.73;0.67;;;;;;;13.77;100.00;99016.66;6132353;28;20075;-74
2023/10/29 09:21:44;;;;;;;2.23;0.63;;;;;;;13.82;100.00;99011.53;6126883;28;20266;-76
2023/10/29 09:24:40;;;;;;;1.75;0.70;;;;;;;14.07;100.00;99039.13;6124458;28;20475;-74
2023/10/29 09:27:36;;;;;;;3.33;0.80;;;;;;;14.32;100.00;99026.75;6128441;28;20036;-75
2023/10/29 09:30:31;;;;;;;1.00;0.70;;;;;;;14.62;100.00;99036.91;6122904;28;20036;-75
2023/10/29 09:33:28;;;;;;;2.08;0.60;;;;;;;15.05;100.00;99043.22;6122699;28;20032;-76
2023/10/29 09:36:24;;;;;;;1.95;0.82;;;;;;;15.23;100.00;99024.59;6122374;28;20044;-75
2023/10/29 09:39:19;;;;;;;2.17;0.93;;;;;;;15.40;100.00;99052.41;6122173;28;20051;-75
2023/10/29 09:42:18;;;;;;;0.93;0.57;;;;;;;15.75;100.00;99060.75;6121771;28;20036;-74
2023/10/29 09:45:15;;;;;;;2.20;1.10;;;;;;;15.82;100.00;99036.63;6128240;28;20116;-75
2023/10/29 09:48:12;;;;;;;2.47;0.80;;;;;;;15.78;100.00;99027.44;6130351;28;20044;-74
2023/10/29 09:51:08;;;;;;;3.90;1.17;;;;;;;15.76;100.00;99024.16;6104973;28;20131;-74
2023/10/29 09:54:03;;;;;;;1.58;0.52;;;;;;;15.82;100.00;99036.63;6122501;28;20088;-74
2023/10/29 09:57:00;;;;;;;2.65;0.68;;;;;;;15.83;100.00;99057.81;6126337;28;20032;-75
2023/10/29 09:59:56;;;;;;;2.88;0.70;;;;;;;15.59;100.00;99055.16;6129740;28;20106;-74
2023/10/29 10:02:58;;;;;;;1.35;0.85;;;;;;;15.34;100.00;99061.28;6109525;28;20429;-77
2023/10/29 10:05:54;;;;;;;2.25;0.75;;;;;;;15.17;100.00;99068.19;6121634;28;20024;-75
2023/10/29 10:08:56;;;;;;;2.90;1.27;;;;;;;15.24;100.00;99084.16;6131658;28;20368;-74
2023/10/29 10:12:04;;;;;;;1.73;1.00;;;;;;;15.23;100.00;99082.50;6125251;28;20036;-74
2023/10/29 10:15:06;;;;;;;2.13;0.65;;;;;;;15.26;100.00;99093.59;6125739;28;20380;-72
2023/10/29 10:18:06;;;;;;;2.38;0.90;;;;;;;15.13;100.00;99085.69;6129870;28;20028;-75
2023/10/29 10:21:02;;;;;;;;;;;;;;;15.20;100.00;99094.44;6122092;28;20041;-76
2023/10/29 10:23:57;;;;;;;2.27;0.80;;;;;;;15.04;100.00;99084.28;6122780;28;19919;-76
2023/10/29 10:26:52;;;;;;;2.15;0.88;;;;;;;15.14;100.00;99089.13;6120930;28;20032;-75
2023/10/29 10:29:50;;;;;;;0.83;0.60;;;;;;;15.06;100.00;99090.22;6132765;28;20036;-73
2023/10/29 10:32:45;;;;;;;2.45;0.70;;;;;;;15.07;100.00;99085.69;6124965;28;20028;-74
2023/10/29 10:35:45;;;;;;;1.90;0.50;;;;;;;15.09;100.00;99081.78;6121982;28;20067;-74
2023/10/29 10:38:53;;;;;;;2.50;0.60;;;;;;;14.95;100.00;99082.88;6123827;28;20040;-75
2023/10/29 10:41:49;;;;;;;1.65;0.70;;;;;;;15.01;100.00;99087.38;6107649;28;20037;-75
2023/10/29 10:44:45;;;;;;;1.45;0.65;;;;;;;15.04;100.00;99086.94;6132711;28;20028;-76
2023/10/29 10:47:40;;;;;;;2.20;1.17;;;;;;;15.01;100.00;99070.53;6121141;28;20403;-75
2023/10/29 10:50:36;;;;;;;0.67;0.60;;;;;;;15.07;100.00;99107.06;6126740;28;20283;-76
2023/10/29 10:53:31;;;;;;;1.35;0.73;;;;;;;15.06;100.00;99106.25;6110114;28;20274;-74
2023/10/29 10:56:28;;;;;;;3.55;1.25;;;;;;;15.10;100.00;99087.94;6107898;28;20182;-76
2023/10/29 10:59:24;;;;;;;1.13;0.47;;;;;;;15.17;100.00;99105.56;6110368;28;20467;-74
2023/10/29 11:02:19;;;;;;;2.30;0.63;;;;;;;15.14;100.00;99100.66;6131669;28;20031;-75
2023/10/29 11:05:16;;;;;;;2.67;1.33;;;;;;;15.15;100.00;99088.13;6095040;28;20107;-76
2023/10/29 11:08:14;;;;;;;1.05;0.52;;;;;;;15.25;100.00;99070.59;6123347;28;21363;-77
2023/10/29 11:11:10;;;;;;;3.33;0.73;;;;;;;15.25;100.00;99072.44;6101868;28;20060;-75
2023/10/29 11:14:16;;;;;;;3.83;0.90;;;;;;;15.35;100.00;99076.28;6126044;28;20067;-75
2023/10/29 11:17:12;;;;;;;0.55;0.40;;;;;;;15.36;100.00;99072.56;6123976;28;20032;-74
2023/10/29 11:20:07;;;;;;;1.13;0.55;;;;;;;15.22;100.00;99064.88;6127882;28;20032;-75
2023/10/29 11:23:07;;;;;;;2.00;0.80;;;;;;;15.20;100.00;99062.41;6124493;28;20471;-74
2023/10/29 11:26:22;;;;;;;2.17;0.80;;;;;;;15.30;100.00;99089.44;6124482;28;20104;-75
2023/10/29 11:29:43;;;;;;;1.63;1.08;;;;;;;15.34;100.00;99095.19;6126990;28;20032;-74
2023/10/29 11:32:39;;;;;;;0.80;0.65;;;;;;;15.14;100.00;99110.50;6134986;28;20036;-75
2023/10/29 11:35:35;;;;;;;2.65;0.90;;;;;;;15.02;100.00;99090.88;6128785;28;20048;-76
2023/10/29 11:38:34;;;;;;;1.77;0.70;;;;;;;15.19;100.00;99097.34;6124665;28;20033;-76
2023/10/29 11:41:36;;;;;;;2.28;0.68;;;;;;;15.11;100.00;99103.75;6124055;28;20032;-75
2023/10/29 11:44:33;;;;;;;1.42;0.40;;;;;;;15.26;100.00;99109.63;6128781;28;20028;-76
2023/10/29 11:47:28;;;;;;;1.42;0.40;;;;;;;15.26;100.00;99087.44;6126941;28;20040;-74
2023/10/29 11:50:23;;;;;;;1.27;0.50;;;;;;;15.37;100.00;99100.91;6126897;28;20028;-76
2023/10/29 11:53:25;;;;;;;4.87;0.67;;;;;;;15.36;100.00;99095.78;6103388;28;20320;-77
2023/10/29 11:56:25;;;;;;;2.25;1.05;;;;;;;15.38;100.00;99091.84;6128668;28;20021;-76
2023/10/29 11:59:20;;;;;;;1.38;0.50;;;;;;;15.30;100.00;99102.78;6125135;28;20060;-77
2023/10/29 12:02:15;;;;;;;2.93;0.97;;;;;;;15.13;100.00;99093.69;6124857;28;20158;-75
2023/10/29 12:05:11;;;;;;;2.17;1.10;;;;;;;15.18;100.00;99087.69;6129020;28;20262;-76
2023/10/29 12:08:06;;;;;;;0.52;0.40;;;;;;;15.24;100.00;99097.50;6117119;28;20275;-76
2023/10/29 12:11:02;;;;;;;3.63;0.80;;;;;;;15.27;100.00;99105.91;6132480;28;20452;-75
2023/10/29 12:13:57;;;;;;;3.87;0.83;;;;;;;15.22;100.00;99096.94;6122668;28;20313;-75
2023/10/29 12:16:52;;;;;;;2.47;0.70;;;;;;;15.39;100.00;99093.50;6130653;28;20266;-75
2023/10/29 12:19:48;;;;;;;2.42;0.75;;;;;;;15.31;100.00;99080.41;6125765;28;20174;-75
2023/10/29 12:22:43;;;;;;;2.40;0.90;;;;;;;15.30;100.00;99077.97;6125121;28;20036;-74
2023/10/29 12:25:39;;;;;;;4.13;0.90;;;;;;;15.31;100.00;99091.09;6128223;28;20043;-74
2023/10/29 12:28:36;;;;;;;2.70;0.80;;;;;;;15.36;100.00;99103.78;6126743;28;20094;-73
2023/10/29 12:31:31;;;;;;;3.50;1.42;;;;;;;15.22;100.00;99087.03;6101250;28;20079;-77
2023/10/29 12:34:27;;;;;;;1.90;0.57;;;;;;;15.46;100.00;99112.19;6129726;28;20113;-74
2023/10/29 12:37:27;;;;;;;3.15;0.50;;;;;;;15.53;100.00;99110.28;6123032;28;20024;-74
2023/10/29 12:40:22;;;;;;;2.90;0.80;;;;;;;15.45;100.00;99103.31;6122480;28;20028;-76
2023/10/29 12:43:31;;;;;;;2.73;1.17;;;;;;;15.40;100.00;99095.16;6123183;28;20033;-74
2023/10/29 12:46:27;;;;;;;2.50;0.93;;;;;;;15.40;100.00;99100.50;6124779;28;20051;-73
2023/10/29 12:49:25;;;;;;;2.17;1.20;;;;;;;15.23;100.00;99072.66;6135546;28;20618;-75
2023/10/29 12:52:21;;;;;;;1.98;0.80;;;;;;;15.27;100.00;99084.53;6129797;28;20032;-75
2023/10/29 12:55:16;;;;;;;2.88;0.88;;;;;;;15.25;100.00;99083.94;6127426;28;20100;-75
2023/10/29 12:58:12;;;;;;;2.07;0.60;;;;;;;15.35;100.00;99076.28;6126967;28;20395;-75
2023/10/29 13:01:07;;;;;;;2.90;1.30;;;;;;;15.28;100.00;99064.81;6122173;28;20041;-74
2023/10/29 13:04:02;;;;;;;1.70;0.90;;;;;;;15.23;100.00;99067.31;6126444;28;20033;-74
2023/10/29 13:07:07;;;;;;;1.83;0.82;;;;;;;15.29;100.00;99076.31;6127311;28;20106;-76
2023/10/29 13:10:06;;;;;;;0.88;0.68;;;;;;;15.31;100.00;99091.09;6121608;28;20107;-76
2023/10/29 13:13:02;;;;;;;1.88;0.70;;;;;;;15.38;100.00;99075.03;6124294;28;20116;-76
2023/10/29 13:15:57;;;;;;;2.53;0.60;;;;;;;15.45;100.00;99055.25;6125414;28;20024;-77
2023/10/29 13:18:54;;;;;;;1.10;0.60;;;;;;;15.55;100.00;99059.28;6122374;28;20472;-77
2023/10/29 13:21:51;;;;;;;2.40;1.00;;;;;;;15.59;100.00;99033.78;6125983;28;20419;-75
2023/10/29 13:24:47;;;;;;;2.30;1.00;;;;;;;15.59;100.00;99055.97;6124502;28;20029;-77
2023/10/29 13:27:42;;;;;;;2.73;1.20;;;;;;;15.63;100.00;99051.00;6124055;28;20095;-75
2023/10/29 13:30:38;;;;;;;1.27;0.50;;;;;;;15.62;100.00;99044.03;6125277;28;20410;-75
2023/10/29 13:33:33;;;;;;;1.97;0.60;;;;;;;15.52;100.00;99049.84;6125857;28;20032;-74
2023/10/29 13:36:28;;;;;;;2.67;1.13;;;;;;;15.43;100.00;99038.63;6122210;28;20021;-76
2023/10/29 13:39:24;;;;;;;2.72;1.40;;;;;;;15.29;100.00;99033.59;6120825;28;20044;-76